createdAt,value
2022-11-30T05:01:16.507Z,38.97
2022-11-30T05:03:48.181Z,39.23
2022-11-30T05:06:19.840Z,38.13
2022-11-30T05:08:51.487Z,39.00
2022-11-30T05:11:23.150Z,39.57
2022-11-30T05:13:54.784Z,39.10
2022-11-30T05:16:27.949Z,40.90
2022-11-30T05:18:59.728Z,40.47
2022-11-30T05:21:31.472Z,39.40
2022-11-30T05:24:03.474Z,37.67
2022-11-30T05:26:35.303Z,39.60
2022-11-30T05:29:07.010Z,38.97
2022-11-30T05:31:40.112Z,39.63
2022-11-30T05:34:11.787Z,40.13
2022-11-30T05:36:43.451Z,40.77
2022-11-30T05:39:15.086Z,41.93
2022-11-30T05:41:46.739Z,42.37
2022-11-30T05:44:18.385Z,44.80
2022-11-30T05:46:51.437Z,45.17
2022-11-30T05:49:23.126Z,45.83
2022-11-30T05:51:54.770Z,46.87
2022-11-30T05:54:26.414Z,46.50
2022-11-30T05:56:58.082Z,47.80
2022-11-30T05:59:29.735Z,48.40
2022-11-30T06:02:02.920Z,47.80
2022-11-30T06:04:35.169Z,48.07
2022-11-30T06:07:06.826Z,47.63
2022-11-30T06:09:38.553Z,47.87
2022-11-30T06:12:10.208Z,50.23
2022-11-30T06:14:41.854Z,47.27
2022-11-30T06:17:14.934Z,48.33
2022-11-30T06:19:46.586Z,46.57
2022-11-30T06:22:18.272Z,49.57
2022-11-30T06:24:50.041Z,46.97
2022-11-30T06:27:21.714Z,45.03
2022-11-30T06:29:53.375Z,43.40
2022-11-30T06:32:26.409Z,41.00
2022-11-30T06:34:58.061Z,40.17
2022-11-30T06:37:29.907Z,40.00
2022-11-30T06:40:08.784Z,39.70
2022-11-30T06:42:40.607Z,35.50
2022-11-30T06:45:13.257Z,35.13
2022-11-30T06:47:46.272Z,37.33
2022-11-30T06:50:18.044Z,33.83
2022-11-30T06:52:49.738Z,33.43
2022-11-30T06:55:21.371Z,34.63
2022-11-30T06:57:53.028Z,33.10
2022-11-30T07:00:24.762Z,33.17
2022-11-30T07:02:57.805Z,32.47
2022-11-30T07:05:29.474Z,31.60
2022-11-30T07:08:01.194Z,33.50
2022-11-30T07:10:32.878Z,31.17
2022-11-30T07:13:04.533Z,30.03
2022-11-30T07:15:36.182Z,29.47
2022-11-30T07:18:09.391Z,30.33
2022-11-30T07:20:42.073Z,30.97
2022-11-30T07:23:13.746Z,30.70
2022-11-30T07:25:45.394Z,30.57
2022-11-30T07:28:17.070Z,29.83
2022-11-30T07:30:48.754Z,29.23
2022-11-30T07:33:21.752Z,28.13
2022-11-30T07:35:53.514Z,28.33
2022-11-30T07:38:25.176Z,29.80
2022-11-30T07:40:57.594Z,29.73
2022-11-30T07:43:29.271Z,29.03
2022-11-30T07:46:01.084Z,27.60
2022-11-30T07:48:34.214Z,27.30
2022-11-30T07:51:06.764Z,26.67
2022-11-30T07:53:38.434Z,26.23
2022-11-30T07:56:10.893Z,25.63
2022-11-30T07:58:42.563Z,26.47
2022-11-30T08:01:15.507Z,24.53
2022-11-30T08:03:48.813Z,24.97
2022-11-30T08:06:21.311Z,25.23
2022-11-30T08:08:53.606Z,24.27
2022-11-30T08:11:25.929Z,23.20
2022-11-30T08:13:57.586Z,24.43
2022-11-30T08:16:29.827Z,24.40
2022-11-30T08:19:02.851Z,24.17
2022-11-30T08:21:34.509Z,25.00
2022-11-30T08:24:06.994Z,23.03
2022-11-30T08:26:38.677Z,23.13
2022-11-30T08:29:10.450Z,22.97
2022-11-30T08:31:42.113Z,24.47
2022-11-30T08:34:15.180Z,24.60
2022-11-30T08:36:47.249Z,25.50
2022-11-30T08:39:23.313Z,24.90
2022-11-30T08:41:54.992Z,25.30
2022-11-30T08:44:27.367Z,25.73
2022-11-30T08:46:59.070Z,25.67
2022-11-30T08:49:32.121Z,24.90
2022-11-30T08:52:20.368Z,26.27
2022-11-30T08:54:52.511Z,25.90
2022-11-30T08:57:24.444Z,26.67
2022-11-30T08:59:56.101Z,26.20
2022-11-30T09:02:27.814Z,25.90
2022-11-30T09:05:00.882Z,26.93
2022-11-30T09:07:32.670Z,26.73
2022-11-30T09:10:05.233Z,27.13
2022-11-30T09:12:36.976Z,27.23
2022-11-30T09:15:09.348Z,27.17
2022-11-30T09:17:42.058Z,28.77
2022-11-30T09:20:15.308Z,28.07
2022-11-30T09:22:46.948Z,27.53
2022-11-30T09:25:18.634Z,27.93
2022-11-30T09:27:50.300Z,28.30
2022-11-30T09:30:22.383Z,27.63
2022-11-30T09:32:54.012Z,29.17
2022-11-30T09:35:27.028Z,28.60
2022-11-30T09:37:58.662Z,28.47
2022-11-30T09:40:34.155Z,28.00
2022-11-30T09:43:11.512Z,29.07
2022-11-30T09:45:43.208Z,28.13
2022-11-30T09:48:29.267Z,27.50
2022-11-30T09:51:06.254Z,30.03
2022-11-30T09:53:39.595Z,30.10
2022-11-30T09:56:18.417Z,30.50
2022-11-30T09:58:52.883Z,29.53
2022-11-30T10:01:24.562Z,31.17
2022-11-30T10:03:56.259Z,31.83
2022-11-30T10:06:33.360Z,30.87
2022-11-30T10:09:16.286Z,31.57
2022-11-30T10:11:53.319Z,31.37
2022-11-30T10:14:42.281Z,30.17
2022-11-30T10:17:20.054Z,30.50
2022-11-30T10:20:00.306Z,31.47
2022-11-30T10:22:36.963Z,30.60
2022-11-30T10:25:12.457Z,31.23
2022-11-30T10:27:49.164Z,30.27
2022-11-30T10:30:21.643Z,31.70
2022-11-30T10:32:54.323Z,33.57
2022-11-30T10:35:33.763Z,32.30
2022-11-30T10:38:11.739Z,34.33
2022-11-30T10:40:45.868Z,30.73
2022-11-30T10:43:20.094Z,33.63
2022-11-30T10:45:51.845Z,33.43
2022-11-30T10:48:27.039Z,35.80
2022-11-30T10:50:58.839Z,34.23
2022-11-30T10:53:31.844Z,35.63
2022-11-30T10:56:06.136Z,36.30
2022-11-30T10:58:39.108Z,38.23
2022-11-30T11:01:11.516Z,36.47
2022-11-30T11:03:43.257Z,36.67
2022-11-30T11:06:19.168Z,35.07
2022-11-30T11:08:52.146Z,36.73
2022-11-30T11:11:31.933Z,34.93
2022-11-30T11:14:09.543Z,37.20
2022-11-30T11:17:05.560Z,39.03
2022-11-30T11:19:38.115Z,38.93
2022-11-30T11:22:15.220Z,39.70
2022-11-30T11:24:48.327Z,36.40
2022-11-30T11:27:22.894Z,38.00
2022-11-30T11:30:02.929Z,38.10
2022-11-30T11:32:34.684Z,39.40
2022-11-30T11:35:27.552Z,40.37
2022-11-30T11:37:59.194Z,39.17
2022-11-30T11:40:32.202Z,38.87
2022-11-30T11:43:03.835Z,40.73
2022-11-30T11:45:37.495Z,39.97
2022-11-30T11:48:29.206Z,40.30
2022-11-30T11:51:07.180Z,40.17
2022-11-30T11:53:53.086Z,41.43
2022-11-30T11:56:27.768Z,40.07
2022-11-30T11:59:01.357Z,42.67
2022-11-30T12:01:41.181Z,41.53
2022-11-30T12:04:20.468Z,39.73
2022-11-30T12:06:52.624Z,39.83
2022-11-30T12:09:25.437Z,42.33
2022-11-30T12:11:58.418Z,42.17
2022-11-30T12:14:30.061Z,43.30
2022-11-30T12:17:15.892Z,42.27
2022-11-30T12:19:54.087Z,43.50
2022-11-30T12:22:45.184Z,43.43
2022-11-30T12:25:20.998Z,43.33
2022-11-30T12:27:59.023Z,44.73
2022-11-30T12:30:35.105Z,44.63
2022-11-30T12:33:11.936Z,45.97
2022-11-30T12:35:53.065Z,44.53
2022-11-30T12:38:31.249Z,43.67
2022-11-30T12:41:07.423Z,42.87
2022-11-30T12:43:45.485Z,44.17
2022-11-30T12:46:20.997Z,43.47
2022-11-30T12:49:01.872Z,45.57
2022-11-30T12:51:34.838Z,44.73
2022-11-30T12:54:09.340Z,42.57
2022-11-30T12:56:45.873Z,42.40
2022-11-30T12:59:23.590Z,42.87
2022-11-30T13:02:12.009Z,42.07
2022-11-30T13:04:44.840Z,43.70
2022-11-30T13:07:22.503Z,43.67
2022-11-30T13:09:55.783Z,43.97
2022-11-30T13:12:28.863Z,46.10
2022-11-30T13:15:03.685Z,41.23
2022-11-30T13:17:35.346Z,45.17
2022-11-30T13:20:10.464Z,43.63
2022-11-30T13:22:45.508Z,45.37
2022-11-30T13:25:34.095Z,43.67
2022-11-30T13:28:15.135Z,42.40
2022-11-30T13:30:49.805Z,42.87
2022-11-30T13:33:46.830Z,43.77
2022-11-30T13:36:30.778Z,43.13
2022-11-30T13:39:10.338Z,43.00
2022-11-30T13:41:42.313Z,43.80
2022-11-30T13:44:24.624Z,44.20
2022-11-30T13:46:57.668Z,42.73
2022-11-30T13:49:30.028Z,40.87
2022-11-30T13:52:22.015Z,41.90
2022-11-30T13:54:53.657Z,43.40
2022-11-30T13:58:05.393Z,41.33
2022-11-30T14:00:44.364Z,41.10
2022-11-30T14:03:23.620Z,40.50
2022-11-30T14:05:55.549Z,40.43
2022-11-30T14:08:35.070Z,37.70
2022-11-30T14:11:35.840Z,37.37
2022-11-30T14:14:45.396Z,36.30
2022-11-30T14:17:19.799Z,35.53
2022-11-30T14:19:54.014Z,36.77
2022-11-30T14:22:25.959Z,36.10
2022-11-30T14:24:57.615Z,35.33
2022-11-30T14:27:29.376Z,35.00
2022-11-30T14:30:01.773Z,34.57
2022-11-30T14:32:34.777Z,35.10
2022-11-30T14:35:12.730Z,33.80
2022-11-30T14:37:45.400Z,35.57
2022-11-30T14:40:19.046Z,35.33
2022-11-30T14:42:52.407Z,34.13
2022-11-30T14:45:25.490Z,34.63
2022-11-30T14:48:04.960Z,34.90
2022-11-30T14:50:38.596Z,34.87
2022-11-30T14:53:22.166Z,35.73
2022-11-30T14:55:55.570Z,35.97
2022-11-30T14:58:30.500Z,34.70
2022-11-30T15:01:03.164Z,34.87
2022-11-30T15:03:40.450Z,35.00
2022-11-30T15:06:16.210Z,35.97
2022-11-30T15:08:50.812Z,35.23
2022-11-30T15:11:22.439Z,34.40
2022-11-30T15:13:54.933Z,35.87
2022-11-30T15:16:27.289Z,36.70
2022-11-30T15:18:59.222Z,36.13
2022-11-30T15:21:32.258Z,36.63
2022-11-30T15:24:04.283Z,35.40
2022-11-30T15:26:37.838Z,35.97
2022-11-30T15:29:12.252Z,36.27
2022-11-30T15:31:45.159Z,36.60
2022-11-30T15:34:18.372Z,36.20
2022-11-30T15:36:52.860Z,34.97
2022-11-30T15:39:25.533Z,36.67
2022-11-30T15:41:58.074Z,38.10
2022-11-30T15:44:38.949Z,37.57
2022-11-30T15:47:23.848Z,36.90
2022-11-30T15:49:55.732Z,37.90
2022-11-30T15:52:29.349Z,37.60
2022-11-30T15:55:00.988Z,38.70
2022-11-30T15:57:56.550Z,38.70
2022-11-30T16:00:28.238Z,37.20
2022-11-30T16:03:08.722Z,36.40
2022-11-30T16:05:40.351Z,38.80
2022-11-30T16:08:15.702Z,39.67
2022-11-30T16:10:47.364Z,36.43
2022-11-30T16:13:19.709Z,35.80
2022-11-30T16:15:51.702Z,37.43
2022-11-30T16:18:24.102Z,38.17
2022-11-30T16:20:57.335Z,35.10
2022-11-30T16:23:30.342Z,35.00
2022-11-30T16:26:01.969Z,36.47
2022-11-30T16:28:33.607Z,36.30
2022-11-30T16:31:05.423Z,35.53
2022-11-30T16:33:37.098Z,40.13
2022-11-30T16:36:09.546Z,36.30
2022-11-30T16:38:42.530Z,35.63
2022-11-30T16:41:16.183Z,35.73
2022-11-30T16:43:48.754Z,35.43
2022-11-30T16:46:21.367Z,35.23
2022-11-30T16:48:53.081Z,33.43
2022-11-30T16:51:26.344Z,36.03
2022-11-30T16:53:59.336Z,32.50
2022-11-30T16:56:30.969Z,34.60
2022-11-30T16:59:02.629Z,35.93
2022-11-30T17:01:36.291Z,33.70
2022-11-30T17:04:11.235Z,33.27
2022-11-30T17:06:45.727Z,33.47
2022-11-30T17:09:21.386Z,34.37
2022-11-30T17:11:53.016Z,33.43
2022-11-30T17:14:24.727Z,30.80
2022-11-30T17:16:56.432Z,32.83
2022-11-30T17:19:28.149Z,30.83
2022-11-30T17:21:59.875Z,29.00
2022-11-30T17:24:32.969Z,29.77
2022-11-30T17:27:04.606Z,29.07
2022-11-30T17:29:36.358Z,30.13
2022-11-30T17:32:07.975Z,30.80
2022-11-30T17:34:39.776Z,30.93
2022-11-30T17:37:11.427Z,29.57
2022-11-30T17:39:44.476Z,29.73
2022-11-30T17:42:16.121Z,29.90
2022-11-30T17:44:48.042Z,30.00
2022-11-30T17:47:20.051Z,29.50
2022-11-30T17:49:51.749Z,30.80
2022-11-30T17:52:23.464Z,34.60
2022-11-30T17:54:56.462Z,30.77
2022-11-30T17:57:28.616Z,31.30
2022-11-30T18:00:00.303Z,33.23
2022-11-30T18:02:32.002Z,30.70
2022-11-30T18:05:03.828Z,31.60
2022-11-30T18:07:35.603Z,29.93
2022-11-30T18:10:09.669Z,28.60
2022-11-30T18:12:41.355Z,31.33
2022-11-30T18:15:13.045Z,29.40
2022-11-30T18:17:44.678Z,29.43
2022-11-30T18:20:16.412Z,30.43
2022-11-30T18:22:48.022Z,31.10
2022-11-30T18:25:21.028Z,30.97
2022-11-30T18:27:52.703Z,30.73
2022-11-30T18:30:24.360Z,28.40
2022-11-30T18:32:56.006Z,29.23
2022-11-30T18:35:27.676Z,27.60
2022-11-30T18:37:59.326Z,27.37
2022-11-30T18:40:32.329Z,27.47
2022-11-30T18:43:04.355Z,25.67
2022-11-30T18:45:36.023Z,27.60
2022-11-30T18:48:07.674Z,23.97
2022-11-30T18:50:39.358Z,23.43
2022-11-30T18:53:16.600Z,24.17
2022-11-30T18:55:51.202Z,23.17
2022-11-30T18:58:22.834Z,23.20
2022-11-30T19:00:54.495Z,21.43
2022-11-30T19:03:26.196Z,21.63
2022-11-30T19:05:57.826Z,22.83
2022-11-30T19:08:29.465Z,21.13
2022-11-30T19:11:05.256Z,22.73
2022-11-30T19:13:37.287Z,20.87
2022-11-30T19:16:11.205Z,21.77
2022-11-30T19:18:42.978Z,21.47
2022-11-30T19:21:16.282Z,22.57
2022-11-30T19:23:48.098Z,21.40
2022-11-30T19:26:21.108Z,22.33
2022-11-30T19:28:53.268Z,21.57
2022-11-30T19:31:25.212Z,21.37
2022-11-30T19:33:56.923Z,23.67
2022-11-30T19:36:29.004Z,20.53
2022-11-30T19:39:00.706Z,22.07
2022-11-30T19:41:33.712Z,21.90
2022-11-30T19:44:05.409Z,21.60
2022-11-30T19:46:37.092Z,22.43
2022-11-30T19:49:09.452Z,21.63
2022-11-30T19:51:41.119Z,22.17
2022-11-30T19:54:12.793Z,20.57
2022-11-30T19:56:45.816Z,22.33
2022-11-30T19:59:17.476Z,22.47
2022-11-30T20:01:49.136Z,21.23
2022-11-30T20:04:20.904Z,19.27
2022-11-30T20:06:52.539Z,20.57
2022-11-30T20:09:24.290Z,21.00
2022-11-30T20:11:57.244Z,22.30
2022-11-30T20:14:28.899Z,21.23
2022-11-30T20:17:00.530Z,21.77
2022-11-30T20:19:32.192Z,19.40
2022-11-30T20:22:03.827Z,19.23
2022-11-30T20:24:35.696Z,18.37
2022-11-30T20:27:08.707Z,19.13
2022-11-30T20:29:40.335Z,18.50
2022-11-30T20:32:12.355Z,19.20
2022-11-30T20:34:44.087Z,18.77
2022-11-30T20:37:15.798Z,18.37
2022-11-30T20:39:47.467Z,17.83
2022-11-30T20:42:20.446Z,17.20
2022-11-30T20:44:52.143Z,17.20
2022-11-30T20:47:23.770Z,18.17
2022-11-30T20:49:55.420Z,16.73
2022-11-30T20:52:27.084Z,17.40
2022-11-30T20:54:58.769Z,15.97
2022-11-30T20:57:31.718Z,15.57
2022-11-30T21:00:06.511Z,16.13
2022-11-30T21:02:41.807Z,15.70
2022-11-30T21:05:13.678Z,14.93
2022-11-30T21:07:45.466Z,15.60
2022-11-30T21:10:17.270Z,15.53
2022-11-30T21:12:50.268Z,16.27
2022-11-30T21:15:21.969Z,17.50
2022-11-30T21:17:53.613Z,15.93
2022-11-30T21:20:25.296Z,17.10
2022-11-30T21:22:56.967Z,16.40
2022-11-30T21:25:28.603Z,16.47
2022-11-30T21:28:01.582Z,15.67
2022-11-30T21:30:33.295Z,16.30
2022-11-30T21:33:04.928Z,16.77
2022-11-30T21:35:37.864Z,16.93
2022-11-30T21:38:09.497Z,16.17
2022-11-30T21:40:41.199Z,15.10
2022-11-30T21:43:14.441Z,16.73
2022-11-30T21:45:56.429Z,15.70
2022-11-30T21:48:28.551Z,16.27
2022-11-30T21:51:00.609Z,15.97
2022-11-30T21:53:32.620Z,15.67
2022-11-30T21:56:04.779Z,15.83
2022-11-30T21:58:37.826Z,15.17
2022-11-30T22:01:11.724Z,15.70
2022-11-30T22:03:43.361Z,15.43
2022-11-30T22:06:15.841Z,16.20
2022-11-30T22:08:47.487Z,16.00
2022-11-30T22:11:20.092Z,16.07
2022-11-30T22:13:53.418Z,16.23
2022-11-30T22:16:26.412Z,15.03
2022-11-30T22:19:00.558Z,15.00
2022-11-30T22:21:32.229Z,15.90
2022-11-30T22:24:04.808Z,14.83
2022-11-30T22:26:37.473Z,15.67
2022-11-30T22:29:11.804Z,14.53
2022-11-30T22:31:44.902Z,15.43
2022-11-30T22:34:16.588Z,15.40
2022-11-30T22:36:48.322Z,15.63
2022-11-30T22:39:20.483Z,16.20
2022-11-30T22:41:55.838Z,14.57
2022-11-30T22:44:29.427Z,16.27
2022-11-30T22:47:01.131Z,16.33
2022-11-30T22:49:32.895Z,15.07
2022-11-30T22:52:04.803Z,15.63
2022-11-30T22:54:36.482Z,14.57
2022-11-30T22:57:08.225Z,14.73
2022-11-30T22:59:41.215Z,14.20
